Thurston, Oregon
Current Conditions -  °F | °C
As of 1:54 PM on Wednesday 28 Jan 2015 (Local Time) from KEUG Reporting Station
Broken Clouds Broken Clouds  
Wind Chill: 55°   Ceiling: 13000
Heat Index: 55°   Visibility: 10mi
Dew Point: 49°   Wind: 8mph
Humidity: 80%   Direction: 40°NE
Pressure: 30.29"   Gusts: NA
Location:  44.05°N, 122.92°W
Report Text: KEUG 282154Z 04007KT 10SM FEW014 SCT080 BKN130 13/09 A3029 RMK AO2 SLP259 T01280094
Loading
Personal Weather Stations






























Interactive Weather Map New forecast layout! Learn more

10-Day Weather Forecast

Advertisements
Track Severe Weather on mobile